createdAt,value
2022-09-21T00:01:31.007Z,31.33
2022-09-21T00:04:01.479Z,38.30
2022-09-21T00:06:32.483Z,32.65
2022-09-21T00:09:03.860Z,30.65
2022-09-21T00:11:34.379Z,33.08
2022-09-21T00:14:07.331Z,33.90
2022-09-21T00:16:35.278Z,33.90
2022-09-21T00:19:03.790Z,33.17
2022-09-21T00:21:31.535Z,33.20
2022-09-21T00:23:59.889Z,31.92
2022-09-21T00:26:27.826Z,32.47
2022-09-21T00:28:58.090Z,35.13
2022-09-21T00:31:27.091Z,35.17
2022-09-21T00:33:55.146Z,33.45
2022-09-21T00:36:24.790Z,34.90
2022-09-21T00:38:55.666Z,33.85
2022-09-21T00:41:23.870Z,37.88
2022-09-21T00:44:25.419Z,39.95
2022-09-21T00:46:56.998Z,35.10
2022-09-21T00:49:27.518Z,39.30
2022-09-21T00:51:59.129Z,39.78
2022-09-21T00:54:37.002Z,38.50
2022-09-21T00:57:05.358Z,37.67
2022-09-21T00:59:37.392Z,40.45
2022-09-21T01:02:05.519Z,39.45
2022-09-21T01:04:34.335Z,35.70
2022-09-21T01:07:05.983Z,42.40
2022-09-21T01:09:34.936Z,41.58
2022-09-21T01:12:32.231Z,42.47
2022-09-21T01:15:06.356Z,36.17
2022-09-21T01:18:07.987Z,41.17
2022-09-21T01:21:00.691Z,36.17
2022-09-21T01:23:28.192Z,38.22
2022-09-21T01:26:17.086Z,35.42
2022-09-21T01:29:18.626Z,33.53
2022-09-21T01:31:57.284Z,37.45
2022-09-21T01:34:28.076Z,38.75
2022-09-21T01:37:01.617Z,37.63
2022-09-21T01:39:32.586Z,39.20
2022-09-21T01:42:03.606Z,39.00
2022-09-21T01:44:34.735Z,36.58
2022-09-21T01:47:04.570Z,37.17
2022-09-21T01:49:44.709Z,41.20
2022-09-21T01:52:22.295Z,39.25
2022-09-21T01:55:01.133Z,40.70
2022-09-21T01:57:47.960Z,39.95
2022-09-21T02:00:16.561Z,39.88
2022-09-21T02:03:10.838Z,34.25
2022-09-21T02:05:38.619Z,34.20
2022-09-21T02:08:08.260Z,34.83
2022-09-21T02:10:42.824Z,34.78
2022-09-21T02:13:11.473Z,35.92
2022-09-21T02:15:49.782Z,38.80
2022-09-21T02:18:57.737Z,37.25
2022-09-21T02:21:41.650Z,35.00
2022-09-21T02:24:21.912Z,37.95
2022-09-21T02:27:12.591Z,38.45
2022-09-21T02:30:09.371Z,41.38
2022-09-21T02:33:08.945Z,40.13
2022-09-21T02:35:56.014Z,41.45
2022-09-21T02:38:41.397Z,36.97
2022-09-21T02:41:18.509Z,39.22
2022-09-21T02:43:55.490Z,41.50
2022-09-21T02:46:33.161Z,40.15
2022-09-21T02:49:09.216Z,38.88
2022-09-21T02:51:43.125Z,41.22
2022-09-21T02:54:13.870Z,42.13
2022-09-21T02:56:43.640Z,39.78
2022-09-21T02:59:11.742Z,42.97
2022-09-21T03:01:41.258Z,42.17
2022-09-21T03:04:09.660Z,42.08
2022-09-21T03:06:37.362Z,36.20
2022-09-21T03:09:05.413Z,37.50
2022-09-21T03:11:34.889Z,37.00
2022-09-21T03:14:08.431Z,34.90
2022-09-21T03:16:36.966Z,33.60
2022-09-21T03:19:05.264Z,37.20
2022-09-21T03:21:32.902Z,38.88
2022-09-21T03:24:01.009Z,34.67
2022-09-21T03:26:28.595Z,32.25
2022-09-21T03:28:56.524Z,32.92
2022-09-21T03:31:24.485Z,36.20
2022-09-21T03:33:52.772Z,35.50
2022-09-21T03:36:20.999Z,40.97
2022-09-21T03:38:48.820Z,32.22
2022-09-21T03:41:16.943Z,33.45
2022-09-21T03:43:44.511Z,34.08
2022-09-21T03:46:12.319Z,34.75
2022-09-21T03:48:42.514Z,35.35
2022-09-21T03:51:10.233Z,34.45
2022-09-21T03:53:38.040Z,36.83
2022-09-21T03:56:05.880Z,32.33
2022-09-21T03:58:33.423Z,31.70
2022-09-21T04:01:05.020Z,34.17
2022-09-21T04:03:33.111Z,33.47
2022-09-21T04:06:01.058Z,34.55
2022-09-21T04:08:28.864Z,33.47
2022-09-21T04:10:56.414Z,32.58
2022-09-21T04:13:24.789Z,35.08
2022-09-21T04:15:52.666Z,31.48
2022-09-21T04:18:20.341Z,35.53
2022-09-21T04:20:48.109Z,32.88
2022-09-21T04:23:15.874Z,39.83
2022-09-21T04:25:44.249Z,32.78
2022-09-21T04:28:11.956Z,28.70
2022-09-21T04:30:40.357Z,31.77
2022-09-21T04:33:08.137Z,32.40
2022-09-21T04:35:35.862Z,30.00
2022-09-21T04:38:03.570Z,30.23
2022-09-21T04:40:31.923Z,27.35
2022-09-21T04:42:59.886Z,30.88
2022-09-21T04:45:27.664Z,28.15
2022-09-21T04:47:55.270Z,28.73
2022-09-21T04:50:23.006Z,27.58
2022-09-21T04:53:04.474Z,31.05
2022-09-21T04:55:32.292Z,32.08
2022-09-21T04:57:59.953Z,29.08
2022-09-21T05:00:27.947Z,29.17
2022-09-21T05:02:55.516Z,24.73
2022-09-21T05:05:23.018Z,23.95
2022-09-21T05:07:50.870Z,30.98
2022-09-21T05:10:18.794Z,24.52
2022-09-21T05:12:46.479Z,23.15
2022-09-21T05:15:14.282Z,24.75
2022-09-21T05:17:42.128Z,24.25
2022-09-21T05:20:11.515Z,20.42
2022-09-21T05:22:39.363Z,23.38
2022-09-21T05:25:07.794Z,22.38
2022-09-21T05:27:35.458Z,21.67
2022-09-21T05:30:04.055Z,24.95
2022-09-21T05:33:01.113Z,21.95
2022-09-21T05:35:44.634Z,19.90
2022-09-21T05:38:19.833Z,18.20
2022-09-21T05:40:50.215Z,21.08
2022-09-21T05:43:18.344Z,18.05
2022-09-21T05:45:50.955Z,20.52
2022-09-21T05:48:23.370Z,20.77
2022-09-21T05:51:01.029Z,17.85
2022-09-21T05:53:29.017Z,17.55
2022-09-21T05:56:05.395Z,19.05
2022-09-21T05:58:51.737Z,17.13
2022-09-21T06:02:04.055Z,12.65
2022-09-21T06:04:32.243Z,15.80
2022-09-21T06:06:59.867Z,17.73
2022-09-21T06:09:28.004Z,15.77
2022-09-21T06:11:55.791Z,12.10
2022-09-21T06:14:25.688Z,12.80
2022-09-21T06:16:53.723Z,15.27
2022-09-21T06:19:21.701Z,12.95
2022-09-21T06:21:49.380Z,13.05
2022-09-21T06:24:17.173Z,12.18
2022-09-21T06:26:44.953Z,14.30
2022-09-21T06:29:12.845Z,14.15
2022-09-21T06:31:40.489Z,12.88
2022-09-21T06:34:08.263Z,12.13
2022-09-21T06:36:35.880Z,11.90
2022-09-21T06:39:03.601Z,12.07
2022-09-21T06:41:31.645Z,11.02
2022-09-21T06:44:00.030Z,10.75
2022-09-21T06:46:27.791Z,10.60
2022-09-21T06:48:55.791Z,9.30
2022-09-21T06:51:24.049Z,8.25
2022-09-21T06:53:56.374Z,10.82
2022-09-21T06:58:54.966Z,9.55
2022-09-21T07:01:23.104Z,8.15
2022-09-21T07:03:52.300Z,6.93
2022-09-21T07:06:20.435Z,6.75
2022-09-21T07:11:36.486Z,4.22
2022-09-21T07:14:04.391Z,4.15
2022-09-21T07:16:33.416Z,3.85
2022-09-21T07:19:11.023Z,6.88
2022-09-21T07:21:39.453Z,3.97
2022-09-21T07:24:11.904Z,4.75
2022-09-21T07:26:40.556Z,4.53
2022-09-21T07:29:08.606Z,15.15
2022-09-21T07:31:36.567Z,3.85
2022-09-21T07:34:04.428Z,5.47
2022-09-21T07:36:32.486Z,6.40
2022-09-21T07:39:00.166Z,3.97
2022-09-21T07:41:27.751Z,3.05
2022-09-21T07:43:55.688Z,4.18
2022-09-21T07:46:23.783Z,2.60
2022-09-21T07:48:55.049Z,5.35
2022-09-21T07:51:24.374Z,3.92
2022-09-21T07:53:59.064Z,3.63
2022-09-21T07:56:27.121Z,6.93
2022-09-21T07:59:06.642Z,3.63
2022-09-21T08:01:35.435Z,5.38
2022-09-21T08:04:04.414Z,5.88
2022-09-21T08:06:33.567Z,9.85
2022-09-21T08:09:03.569Z,4.85
2022-09-21T08:11:33.257Z,2.75
2022-09-21T08:14:03.123Z,3.00
2022-09-21T08:16:31.798Z,1.88
2022-09-21T08:18:59.854Z,2.95
2022-09-21T08:21:28.469Z,6.13
2022-09-21T08:23:56.508Z,6.18
2022-09-21T08:26:24.764Z,3.03
2022-09-21T08:28:53.769Z,6.80
2022-09-21T08:31:24.385Z,4.28
2022-09-21T08:33:52.881Z,3.53
2022-09-21T08:36:20.717Z,2.80
2022-09-21T08:38:48.542Z,3.55
2022-09-21T08:41:40.144Z,7.03
2022-09-21T08:44:19.059Z,2.92
2022-09-21T08:46:54.180Z,3.67
2022-09-21T08:49:26.684Z,5.03
2022-09-21T08:52:05.608Z,5.97
2022-09-21T08:54:50.883Z,4.70
2022-09-21T08:57:20.015Z,8.48
2022-09-21T08:59:49.982Z,5.72
2022-09-21T09:02:39.135Z,4.38
2022-09-21T09:05:23.767Z,6.57
2022-09-21T09:07:59.919Z,6.05
2022-09-21T09:10:51.197Z,4.80
2022-09-21T09:13:55.927Z,3.90
2022-09-21T09:17:05.092Z,3.80
2022-09-21T09:19:42.435Z,4.47
2022-09-21T09:22:17.109Z,5.85
2022-09-21T09:24:49.929Z,4.63
2022-09-21T09:27:32.606Z,6.18
2022-09-21T09:30:14.186Z,5.20
2022-09-21T09:32:45.465Z,4.70
2022-09-21T09:35:25.350Z,4.82
2022-09-21T09:38:05.046Z,5.22
2022-09-21T09:40:45.502Z,3.30
2022-09-21T09:43:29.295Z,5.55
2022-09-21T09:46:03.505Z,4.60
2022-09-21T09:48:56.821Z,7.07
2022-09-21T09:51:26.894Z,4.20
2022-09-21T09:54:00.627Z,4.38
2022-09-21T09:56:28.616Z,3.08
2022-09-21T09:59:09.123Z,3.33
2022-09-21T10:01:39.504Z,4.43
2022-09-21T10:04:10.333Z,4.10
2022-09-21T10:06:43.662Z,4.93
2022-09-21T10:09:23.678Z,5.93
2022-09-21T10:11:54.026Z,3.65
2022-09-21T10:14:24.521Z,4.78
2022-09-21T10:16:53.602Z,4.65
2022-09-21T10:19:24.430Z,6.88
2022-09-21T10:22:01.616Z,5.05
2022-09-21T10:24:36.006Z,4.63
2022-09-21T10:27:12.396Z,6.25
2022-09-21T10:29:46.110Z,4.47
2022-09-21T10:32:15.061Z,8.57
2022-09-21T10:35:02.617Z,6.85
2022-09-21T10:37:34.940Z,7.18
2022-09-21T10:40:03.647Z,4.40
2022-09-21T10:42:36.454Z,4.82
2022-09-21T10:45:07.729Z,4.17
2022-09-21T10:48:01.946Z,4.97
2022-09-21T10:50:44.405Z,5.47
2022-09-21T10:53:31.329Z,8.35
2022-09-21T10:56:19.377Z,5.65
2022-09-21T10:59:29.061Z,6.72
2022-09-21T11:01:59.101Z,10.77
2022-09-21T11:04:44.960Z,7.95
2022-09-21T11:07:12.733Z,6.03
2022-09-21T11:09:58.745Z,5.25
2022-09-21T11:12:34.018Z,5.90
2022-09-21T11:15:21.226Z,5.40
2022-09-21T11:18:05.559Z,5.50
2022-09-21T11:20:41.743Z,6.70
2022-09-21T11:23:28.034Z,5.60
2022-09-21T11:26:17.671Z,5.13
2022-09-21T11:29:10.819Z,5.47
2022-09-21T11:31:51.225Z,4.90
2022-09-21T11:34:39.441Z,4.47
2022-09-21T11:37:28.409Z,5.60
2022-09-21T11:40:26.710Z,6.30
2022-09-21T11:43:21.485Z,4.25
2022-09-21T11:46:07.353Z,6.45
2022-09-21T11:48:53.470Z,6.63
2022-09-21T11:51:57.293Z,8.13
2022-09-21T11:55:05.208Z,3.90
2022-09-21T11:57:54.203Z,3.78
2022-09-21T12:00:25.070Z,4.70
2022-09-21T12:03:50.753Z,4.03
2022-09-21T12:06:41.160Z,4.25
2022-09-21T12:09:08.818Z,3.10
2022-09-21T12:12:17.701Z,3.83
2022-09-21T12:15:20.691Z,3.58
2022-09-21T12:17:49.642Z,4.32
2022-09-21T12:20:48.317Z,5.07
2022-09-21T12:23:23.420Z,3.58
2022-09-21T12:25:55.097Z,2.65
2022-09-21T12:28:35.627Z,3.17
2022-09-21T12:31:27.663Z,4.10
2022-09-21T12:33:55.817Z,5.13
2022-09-21T12:36:40.949Z,3.63
2022-09-21T12:39:31.076Z,5.75
2022-09-21T12:42:18.399Z,2.28
2022-09-21T12:44:52.995Z,3.08
2022-09-21T12:47:37.257Z,4.45
2022-09-21T12:52:54.185Z,1.67
2022-09-21T12:55:44.399Z,2.28
2022-09-21T12:58:42.621Z,2.20
2022-09-21T13:01:49.745Z,2.78
2022-09-21T13:04:57.879Z,1.88
2022-09-21T13:07:32.914Z,2.25
2022-09-21T13:10:12.663Z,3.45
2022-09-21T13:12:45.227Z,1.65
2022-09-21T13:15:27.618Z,2.60
2022-09-21T13:18:04.335Z,1.77
2022-09-21T13:20:41.869Z,2.38
2022-09-21T13:23:18.409Z,1.40
2022-09-21T13:25:59.993Z,2.90
2022-09-21T13:28:54.092Z,1.95
2022-09-21T13:31:57.437Z,1.70
2022-09-21T13:34:25.479Z,3.72
2022-09-21T13:37:11.573Z,2.10
2022-09-21T13:40:03.994Z,1.25
2022-09-21T13:42:34.928Z,4.78
2022-09-21T13:45:15.095Z,5.07
2022-09-21T13:47:48.131Z,2.30
2022-09-21T13:50:42.597Z,4.72
2022-09-21T13:53:29.977Z,2.70
2022-09-21T13:56:26.335Z,2.25
2022-09-21T13:58:57.589Z,1.48
2022-09-21T14:01:46.646Z,1.30
2022-09-21T14:04:33.104Z,5.18
2022-09-21T14:07:06.658Z,2.47
2022-09-21T14:09:58.788Z,2.88
2022-09-21T14:12:32.406Z,2.42
2022-09-21T14:15:39.336Z,5.30
2022-09-21T14:18:16.984Z,2.20
2022-09-21T14:21:03.469Z,3.35
2022-09-21T14:23:31.349Z,3.38
2022-09-21T14:26:01.967Z,3.22
2022-09-21T14:28:51.242Z,2.28
2022-09-21T14:31:26.385Z,2.60
2022-09-21T14:33:57.764Z,5.38
2022-09-21T14:36:34.634Z,3.00
2022-09-21T14:39:05.689Z,3.25
2022-09-21T14:41:43.606Z,5.18
2022-09-21T14:44:23.305Z,2.97
2022-09-21T14:47:17.593Z,3.17
2022-09-21T14:50:15.401Z,2.67
2022-09-21T14:53:03.642Z,7.25
2022-09-21T14:56:17.148Z,2.08
2022-09-21T14:59:04.403Z,2.53
2022-09-21T15:01:36.355Z,1.95
2022-09-21T15:04:30.557Z,4.88
2022-09-21T15:07:34.966Z,5.20
2022-09-21T15:10:42.625Z,4.15
2022-09-21T15:13:33.338Z,4.32
2022-09-21T15:16:34.768Z,13.45
2022-09-21T15:19:24.858Z,5.07
2022-09-21T15:21:53.968Z,3.03
2022-09-21T15:24:26.712Z,2.78
2022-09-21T15:27:14.881Z,3.92
2022-09-21T15:29:51.365Z,4.05
2022-09-21T15:32:40.102Z,4.68
2022-09-21T15:35:24.053Z,2.85
2022-09-21T15:37:52.298Z,3.40
2022-09-21T15:40:23.245Z,7.20
2022-09-21T15:43:20.667Z,4.20
2022-09-21T15:46:12.086Z,4.30
2022-09-21T15:48:42.295Z,5.25
2022-09-21T15:51:31.833Z,6.20
2022-09-21T15:54:14.456Z,3.08
2022-09-21T15:56:44.550Z,6.53
2022-09-21T15:59:20.730Z,3.67
2022-09-21T16:01:56.103Z,11.73
2022-09-21T16:04:27.089Z,7.93
2022-09-21T16:07:07.276Z,7.22
2022-09-21T16:09:45.004Z,4.40
2022-09-21T16:12:37.820Z,10.18
2022-09-21T16:15:31.995Z,6.72
2022-09-21T16:18:06.996Z,2.60
2022-09-21T16:20:47.859Z,7.35
2022-09-21T16:23:18.352Z,4.55
2022-09-21T16:25:55.289Z,4.07
2022-09-21T16:28:29.340Z,4.25
2022-09-21T16:30:59.187Z,6.43
2022-09-21T16:33:42.401Z,12.77
2022-09-21T16:36:22.301Z,16.35
2022-09-21T16:38:50.354Z,14.23
2022-09-21T16:41:18.783Z,12.65
2022-09-21T16:43:46.421Z,9.73
2022-09-21T16:46:14.430Z,8.27
2022-09-21T16:48:42.042Z,10.50
2022-09-21T16:51:14.795Z,9.50
2022-09-21T16:53:43.012Z,9.27
2022-09-21T16:56:14.199Z,12.30
2022-09-21T16:58:43.644Z,13.55
2022-09-21T17:01:20.574Z,8.27
2022-09-21T17:03:48.539Z,8.20
2022-09-21T17:06:21.696Z,10.52
2022-09-21T17:08:49.823Z,10.73
2022-09-21T17:11:20.211Z,12.10
2022-09-21T17:13:51.876Z,10.15
2022-09-21T17:16:20.510Z,11.98
2022-09-21T17:18:49.507Z,13.88
2022-09-21T17:21:17.396Z,12.00
2022-09-21T17:23:45.407Z,11.70
2022-09-21T17:26:17.659Z,10.48
2022-09-21T17:28:45.981Z,12.63
2022-09-21T17:31:16.577Z,14.73
2022-09-21T17:33:47.785Z,18.10
2022-09-21T17:36:16.669Z,17.38
2022-09-21T17:38:45.137Z,17.85
2022-09-21T17:41:53.246Z,20.13
2022-09-21T17:44:34.217Z,17.75
2022-09-21T17:47:25.378Z,16.30
2022-09-21T17:49:53.443Z,17.08
2022-09-21T17:52:41.561Z,15.48
2022-09-21T17:55:12.264Z,17.17
2022-09-21T17:57:56.629Z,15.07
2022-09-21T18:00:31.186Z,16.88
2022-09-21T18:02:59.214Z,17.35
2022-09-21T18:05:30.932Z,18.55
2022-09-21T18:07:59.056Z,17.60
2022-09-21T18:10:27.161Z,16.60
2022-09-21T18:13:24.028Z,18.42
2022-09-21T18:16:22.930Z,21.27
2022-09-21T18:19:05.881Z,21.52
2022-09-21T18:21:38.141Z,23.83
2022-09-21T18:24:15.110Z,21.10
2022-09-21T18:26:43.694Z,19.40
2022-09-21T18:29:39.543Z,21.05
2022-09-21T18:32:22.965Z,18.50
2022-09-21T18:35:16.445Z,22.02
2022-09-21T18:38:00.116Z,21.52
2022-09-21T18:40:32.555Z,20.48
2022-09-21T18:43:12.291Z,22.02
2022-09-21T18:45:48.550Z,22.17
2022-09-21T18:48:22.649Z,21.50
2022-09-21T18:51:19.549Z,18.50
2022-09-21T18:53:56.456Z,22.27
2022-09-21T18:56:34.611Z,20.75
2022-09-21T18:59:03.680Z,24.50
2022-09-21T19:01:33.956Z,20.35
2022-09-21T19:04:02.096Z,18.83
2022-09-21T19:06:42.589Z,19.70
2022-09-21T19:09:44.681Z,18.05
2022-09-21T19:12:24.385Z,20.05
2022-09-21T19:15:14.300Z,19.65
2022-09-21T19:18:12.905Z,24.83
2022-09-21T19:21:20.719Z,21.70
2022-09-21T19:24:06.225Z,26.77
2022-09-21T19:27:03.670Z,26.55
2022-09-21T19:29:56.342Z,30.67
2022-09-21T19:32:50.150Z,26.02
2022-09-21T19:35:18.906Z,26.00
2022-09-21T19:37:47.946Z,24.55
2022-09-21T19:40:17.750Z,28.00
2022-09-21T19:43:13.362Z,22.95
2022-09-21T19:46:14.538Z,23.98
2022-09-21T19:48:48.557Z,25.23
2022-09-21T19:51:36.088Z,27.63
2022-09-21T19:54:29.689Z,30.63
2022-09-21T19:57:17.160Z,28.85
2022-09-21T19:59:45.400Z,34.35
2022-09-21T20:02:28.727Z,28.15
2022-09-21T20:05:01.393Z,30.20
2022-09-21T20:07:42.637Z,26.27
2022-09-21T20:10:22.107Z,25.00
2022-09-21T20:13:09.819Z,22.95
2022-09-21T20:16:08.252Z,26.02
2022-09-21T20:18:47.514Z,24.45
2022-09-21T20:21:22.257Z,20.80
2022-09-21T20:23:58.583Z,22.23
2022-09-21T20:26:27.831Z,20.63
2022-09-21T20:28:56.085Z,19.52
2022-09-21T20:31:25.859Z,20.27
2022-09-21T20:33:53.459Z,19.67
2022-09-21T20:36:21.505Z,19.17
2022-09-21T20:38:49.147Z,18.30
2022-09-21T20:41:19.037Z,19.77
2022-09-21T20:43:46.912Z,19.60
2022-09-21T20:46:14.571Z,20.77
2022-09-21T20:48:43.271Z,17.08
2022-09-21T20:51:11.266Z,18.67
2022-09-21T20:53:40.512Z,16.75
2022-09-21T20:56:08.103Z,17.92
2022-09-21T20:58:35.909Z,16.13
2022-09-21T21:01:08.212Z,17.10
2022-09-21T21:03:36.357Z,16.42
2022-09-21T21:06:12.163Z,17.02
2022-09-21T21:08:39.997Z,12.07
2022-09-21T21:11:10.072Z,17.20
2022-09-21T21:13:38.193Z,16.23
2022-09-21T21:16:11.575Z,14.40
2022-09-21T21:18:41.435Z,13.95
2022-09-21T21:21:10.320Z,17.67
2022-09-21T21:23:57.172Z,13.70
2022-09-21T21:26:43.775Z,17.50
2022-09-21T21:29:12.697Z,15.02
2022-09-21T21:31:41.344Z,17.20
2022-09-21T21:34:09.613Z,16.48
2022-09-21T21:36:37.306Z,14.30
2022-09-21T21:39:05.094Z,19.48
2022-09-21T21:41:33.107Z,16.95
2022-09-21T21:44:00.882Z,16.92
2022-09-21T21:46:29.771Z,13.15
2022-09-21T21:48:57.456Z,12.82
2022-09-21T21:51:25.139Z,13.90
2022-09-21T21:53:53.005Z,15.93
2022-09-21T21:56:22.693Z,13.73
2022-09-21T21:58:54.448Z,14.48
2022-09-21T22:01:26.698Z,17.13
2022-09-21T22:03:57.046Z,15.77
2022-09-21T22:06:26.559Z,15.35
2022-09-21T22:08:55.998Z,14.77
2022-09-21T22:11:25.721Z,14.40
2022-09-21T22:13:54.959Z,13.82
2022-09-21T22:16:24.194Z,18.55
2022-09-21T22:18:52.719Z,15.65
2022-09-21T22:21:23.605Z,14.73
2022-09-21T22:23:58.840Z,17.65
2022-09-21T22:26:28.959Z,13.55
2022-09-21T22:29:00.598Z,17.63
2022-09-21T22:31:35.212Z,18.05
2022-09-21T22:36:34.485Z,14.10
2022-09-21T22:39:03.277Z,15.40
2022-09-21T22:41:35.253Z,19.10
2022-09-21T22:44:03.470Z,16.60
2022-09-21T22:46:31.826Z,15.05
2022-09-21T22:49:00.559Z,16.40
2022-09-21T22:51:29.253Z,16.83
2022-09-21T22:53:57.826Z,16.20
2022-09-21T22:56:30.651Z,12.95
2022-09-21T22:59:00.626Z,14.05
2022-09-21T23:01:34.277Z,15.20
2022-09-21T23:04:05.741Z,15.95
2022-09-21T23:06:35.573Z,16.85
2022-09-21T23:09:06.099Z,19.77
2022-09-21T23:11:37.303Z,15.38
2022-09-21T23:14:05.748Z,16.23
2022-09-21T23:16:33.774Z,20.23
2022-09-21T23:19:02.095Z,16.02
2022-09-21T23:21:30.892Z,18.60
2022-09-21T23:24:00.807Z,19.75
2022-09-21T23:26:31.084Z,19.58
2022-09-21T23:29:01.175Z,23.73
2022-09-21T23:31:30.367Z,21.10
2022-09-21T23:34:02.731Z,19.55
2022-09-21T23:36:31.729Z,17.98
2022-09-21T23:38:59.740Z,17.05
2022-09-21T23:41:29.377Z,19.35
2022-09-21T23:43:58.311Z,22.15
2022-09-21T23:46:28.885Z,19.63
2022-09-21T23:48:57.414Z,23.27
2022-09-21T23:51:25.931Z,18.92
2022-09-21T23:53:53.937Z,20.80
2022-09-21T23:56:23.199Z,20.73
2022-09-21T23:58:51.917Z,20.98
